sensor_id;sensor_type;location;lat;lon;timestamp;pressure;altitude;pressure_sealevel;temperature;humidity
71889;BME280;59762;49.998;14.858;2023-10-09T00:02:11;97996.72;;;9.45;100.00
71889;BME280;59762;49.998;14.858;2023-10-09T00:04:38;97997.69;;;9.44;100.00
71889;BME280;59762;49.998;14.858;2023-10-09T00:07:07;97991.25;;;9.37;100.00
71889;BME280;59762;49.998;14.858;2023-10-09T00:09:36;97990.81;;;9.32;100.00
71889;BME280;59762;49.998;14.858;2023-10-09T00:12:22;97985.91;;;9.37;100.00
71889;BME280;59762;49.998;14.858;2023-10-09T00:14:49;97981.97;;;9.32;100.00
71889;BME280;59762;49.998;14.858;2023-10-09T00:17:20;97967.09;;;9.29;100.00
71889;BME280;59762;49.998;14.858;2023-10-09T00:19:49;97960.78;;;9.30;100.00
71889;BME280;59762;49.998;14.858;2023-10-09T00:22:18;97962.63;;;9.30;100.00
71889;BME280;59762;49.998;14.858;2023-10-09T00:24:49;97965.41;;;9.28;100.00
71889;BME280;59762;49.998;14.858;2023-10-09T00:27:16;97963.44;;;9.21;100.00
71889;BME280;59762;49.998;14.858;2023-10-09T00:29:46;97961.19;;;9.16;100.00
71889;BME280;59762;49.998;14.858;2023-10-09T00:32:14;97955.44;;;9.21;100.00
71889;BME280;59762;49.998;14.858;2023-10-09T00:34:44;97947.84;;;9.16;100.00
71889;BME280;59762;49.998;14.858;2023-10-09T00:37:10;97938.19;;;9.25;100.00
71889;BME280;59762;49.998;14.858;2023-10-09T00:39:42;97929.63;;;9.21;100.00
71889;BME280;59762;49.998;14.858;2023-10-09T00:42:13;97917.59;;;9.27;100.00
71889;BME280;59762;49.998;14.858;2023-10-09T00:44:41;97913.97;;;9.37;100.00
71889;BME280;59762;49.998;14.858;2023-10-09T00:47:14;97902.44;;;9.27;100.00
71889;BME280;59762;49.998;14.858;2023-10-09T00:50:03;97903.81;;;9.31;100.00
71889;BME280;59762;49.998;14.858;2023-10-09T00:52:36;97903.44;;;9.36;100.00
71889;BME280;59762;49.998;14.858;2023-10-09T00:55:05;97899.22;;;9.33;100.00
71889;BME280;59762;49.998;14.858;2023-10-09T00:58:01;97895.72;;;9.42;100.00
71889;BME280;59762;49.998;14.858;2023-10-09T01:00:31;97891.66;;;9.48;100.00
71889;BME280;59762;49.998;14.858;2023-10-09T01:03:00;97881.41;;;9.43;100.00
71889;BME280;59762;49.998;14.858;2023-10-09T01:05:48;97875.53;;;9.40;100.00
71889;BME280;59762;49.998;14.858;2023-10-09T01:08:40;97850.00;;;9.37;100.00
71889;BME280;59762;49.998;14.858;2023-10-09T01:11:16;97841.44;;;9.43;100.00
71889;BME280;59762;49.998;14.858;2023-10-09T01:13:50;97845.34;;;9.39;100.00
71889;BME280;59762;49.998;14.858;2023-10-09T01:16:23;97837.50;;;9.38;100.00
71889;BME280;59762;49.998;14.858;2023-10-09T01:18:52;97820.25;;;9.42;100.00
71889;BME280;59762;49.998;14.858;2023-10-09T01:21:19;97824.75;;;9.32;100.00
71889;BME280;59762;49.998;14.858;2023-10-09T01:23:56;97798.66;;;9.35;100.00
71889;BME280;59762;49.998;14.858;2023-10-09T01:26:48;97810.44;;;9.33;100.00
71889;BME280;59762;49.998;14.858;2023-10-09T01:29:23;97828.66;;;9.28;100.00
71889;BME280;59762;49.998;14.858;2023-10-09T01:31:54;97813.09;;;9.33;100.00
71889;BME280;59762;49.998;14.858;2023-10-09T01:34:28;97803.97;;;9.35;100.00
71889;BME280;59762;49.998;14.858;2023-10-09T01:37:13;97787.84;;;9.37;100.00
71889;BME280;59762;49.998;14.858;2023-10-09T01:39:52;97784.50;;;9.35;100.00
71889;BME280;59762;49.998;14.858;2023-10-09T01:42:19;97772.00;;;9.35;100.00
71889;BME280;59762;49.998;14.858;2023-10-09T01:44:51;97757.41;;;9.39;100.00
71889;BME280;59762;49.998;14.858;2023-10-09T01:47:17;97785.50;;;9.34;100.00
71889;BME280;59762;49.998;14.858;2023-10-09T01:49:47;97806.81;;;9.34;100.00
71889;BME280;59762;49.998;14.858;2023-10-09T01:52:18;97810.28;;;9.44;100.00
71889;BME280;59762;49.998;14.858;2023-10-09T01:54:45;97796.41;;;9.40;100.00
71889;BME280;59762;49.998;14.858;2023-10-09T01:57:15;97790.09;;;9.41;100.00
71889;BME280;59762;49.998;14.858;2023-10-09T01:59:47;97771.84;;;9.46;100.00
71889;BME280;59762;49.998;14.858;2023-10-09T02:02:16;97769.31;;;9.45;100.00
71889;BME280;59762;49.998;14.858;2023-10-09T02:05:04;97741.00;;;9.44;100.00
71889;BME280;59762;49.998;14.858;2023-10-09T02:07:33;97738.88;;;9.47;100.00
71889;BME280;59762;49.998;14.858;2023-10-09T02:10:23;97727.28;;;9.39;100.00
71889;BME280;59762;49.998;14.858;2023-10-09T02:13:06;97720.81;;;9.41;100.00
71889;BME280;59762;49.998;14.858;2023-10-09T02:15:33;97711.13;;;9.40;100.00
71889;BME280;59762;49.998;14.858;2023-10-09T02:18:26;97709.00;;;9.44;100.00
71889;BME280;59762;49.998;14.858;2023-10-09T02:23:41;97701.16;;;9.42;100.00
71889;BME280;59762;49.998;14.858;2023-10-09T02:26:07;97707.75;;;9.38;100.00
71889;BME280;59762;49.998;14.858;2023-10-09T02:28:35;97700.31;;;9.42;100.00
71889;BME280;59762;49.998;14.858;2023-10-09T02:31:09;97681.13;;;9.38;100.00
71889;BME280;59762;49.998;14.858;2023-10-09T02:33:36;97683.91;;;9.46;100.00
71889;BME280;59762;49.998;14.858;2023-10-09T02:36:07;97687.81;;;9.52;100.00
71889;BME280;59762;49.998;14.858;2023-10-09T02:38:34;97685.44;;;9.49;100.00
71889;BME280;59762;49.998;14.858;2023-10-09T02:41:01;97690.09;;;9.47;100.00
71889;BME280;59762;49.998;14.858;2023-10-09T02:43:32;97672.22;;;9.57;100.00
71889;BME280;59762;49.998;14.858;2023-10-09T02:46:11;97671.69;;;9.53;100.00
71889;BME280;59762;49.998;14.858;2023-10-09T02:48:47;97664.50;;;9.54;100.00
71889;BME280;59762;49.998;14.858;2023-10-09T02:51:17;97648.63;;;9.62;100.00
71889;BME280;59762;49.998;14.858;2023-10-09T02:53:59;97652.81;;;9.64;100.00
71889;BME280;59762;49.998;14.858;2023-10-09T02:56:32;97643.69;;;9.67;100.00
71889;BME280;59762;49.998;14.858;2023-10-09T02:59:09;97641.16;;;9.65;100.00
71889;BME280;59762;49.998;14.858;2023-10-09T03:01:35;97635.16;;;9.63;100.00
71889;BME280;59762;49.998;14.858;2023-10-09T03:04:04;97652.94;;;9.72;100.00
71889;BME280;59762;49.998;14.858;2023-10-09T03:06:31;97649.31;;;9.64;100.00
71889;BME280;59762;49.998;14.858;2023-10-09T03:09:01;97645.69;;;9.65;100.00
71889;BME280;59762;49.998;14.858;2023-10-09T03:11:46;97630.59;;;9.73;100.00
71889;BME280;59762;49.998;14.858;2023-10-09T03:14:14;97630.47;;;9.75;100.00
71889;BME280;59762;49.998;14.858;2023-10-09T03:16:41;97626.13;;;9.74;100.00
71889;BME280;59762;49.998;14.858;2023-10-09T03:19:08;97619.81;;;9.75;100.00
71889;BME280;59762;49.998;14.858;2023-10-09T03:21:38;97613.19;;;9.79;100.00
71889;BME280;59762;49.998;14.858;2023-10-09T03:24:04;97607.59;;;9.72;100.00
71889;BME280;59762;49.998;14.858;2023-10-09T03:26:31;97603.38;;;9.79;100.00
71889;BME280;59762;49.998;14.858;2023-10-09T03:28:57;97605.47;;;9.76;100.00
71889;BME280;59762;49.998;14.858;2023-10-09T03:31:29;97604.66;;;9.75;100.00
71889;BME280;59762;49.998;14.858;2023-10-09T03:33:56;97598.31;;;9.76;100.00
71889;BME280;59762;49.998;14.858;2023-10-09T03:36:22;97594.94;;;9.74;100.00
71889;BME280;59762;49.998;14.858;2023-10-09T03:38:52;97600.38;;;9.82;100.00
71889;BME280;59762;49.998;14.858;2023-10-09T03:41:26;97574.41;;;9.84;100.00
71889;BME280;59762;49.998;14.858;2023-10-09T03:43:53;97563.91;;;9.83;100.00
71889;BME280;59762;49.998;14.858;2023-10-09T03:46:21;97564.00;;;9.91;100.00
71889;BME280;59762;49.998;14.858;2023-10-09T03:48:49;97556.56;;;9.85;100.00
71889;BME280;59762;49.998;14.858;2023-10-09T03:51:15;97547.91;;;9.83;100.00
71889;BME280;59762;49.998;14.858;2023-10-09T03:53:52;97529.31;;;9.91;100.00
71889;BME280;59762;49.998;14.858;2023-10-09T03:56:20;97529.69;;;9.96;100.00
71889;BME280;59762;49.998;14.858;2023-10-09T03:58:48;97532.22;;;9.97;100.00
71889;BME280;59762;49.998;14.858;2023-10-09T04:01:16;97531.00;;;9.92;100.00
71889;BME280;59762;49.998;14.858;2023-10-09T04:03:59;97528.63;;;9.89;100.00
71889;BME280;59762;49.998;14.858;2023-10-09T04:06:30;97508.28;;;9.88;100.00
71889;BME280;59762;49.998;14.858;2023-10-09T04:09:02;97498.50;;;9.96;100.00
71889;BME280;59762;49.998;14.858;2023-10-09T04:11:52;97487.31;;;9.93;100.00
71889;BME280;59762;49.998;14.858;2023-10-09T04:14:40;97482.91;;;10.01;100.00
71889;BME280;59762;49.998;14.858;2023-10-09T04:17:27;97483.06;;;10.00;100.00
71889;BME280;59762;49.998;14.858;2023-10-09T04:19:59;97482.50;;;9.96;100.00
71889;BME280;59762;49.998;14.858;2023-10-09T04:23:00;97473.38;;;9.99;100.00
71889;BME280;59762;49.998;14.858;2023-10-09T04:25:30;97457.53;;;9.97;100.00
71889;BME280;59762;49.998;14.858;2023-10-09T04:28:08;97439.47;;;9.91;100.00
71889;BME280;59762;49.998;14.858;2023-10-09T04:30:40;97435.28;;;9.89;100.00
71889;BME280;59762;49.998;14.858;2023-10-09T04:33:08;97431.47;;;9.91;100.00
71889;BME280;59762;49.998;14.858;2023-10-09T04:38:43;97426.75;;;9.85;100.00
71889;BME280;59762;49.998;14.858;2023-10-09T04:41:22;97428.41;;;9.86;100.00
71889;BME280;59762;49.998;14.858;2023-10-09T04:43:57;97430.78;;;9.89;100.00
71889;BME280;59762;49.998;14.858;2023-10-09T04:46:48;97429.41;;;9.85;100.00
71889;BME280;59762;49.998;14.858;2023-10-09T04:49:34;97422.63;;;9.91;100.00
71889;BME280;59762;49.998;14.858;2023-10-09T04:52:16;97417.16;;;9.92;100.00
71889;BME280;59762;49.998;14.858;2023-10-09T04:54:51;97412.94;;;9.90;100.00
71889;BME280;59762;49.998;14.858;2023-10-09T04:57:36;97412.78;;;9.91;100.00
71889;BME280;59762;49.998;14.858;2023-10-09T05:00:08;97406.00;;;9.97;100.00
71889;BME280;59762;49.998;14.858;2023-10-09T05:02:57;97402.81;;;9.93;100.00
71889;BME280;59762;49.998;14.858;2023-10-09T05:05:28;97412.13;;;9.89;100.00
71889;BME280;59762;49.998;14.858;2023-10-09T05:10:59;97426.81;;;9.93;100.00
71889;BME280;59762;49.998;14.858;2023-10-09T05:13:35;97434.03;;;9.83;100.00
71889;BME280;59762;49.998;14.858;2023-10-09T05:16:24;97429.13;;;9.88;100.00
71889;BME280;59762;49.998;14.858;2023-10-09T05:18:58;97433.69;;;9.96;100.00
71889;BME280;59762;49.998;14.858;2023-10-09T05:21:37;97443.34;;;9.97;100.00
71889;BME280;59762;49.998;14.858;2023-10-09T05:24:04;97439.22;;;10.02;100.00
71889;BME280;59762;49.998;14.858;2023-10-09T05:31:49;97442.00;;;10.10;100.00
71889;BME280;59762;49.998;14.858;2023-10-09T05:34:22;97444.81;;;10.09;100.00
71889;BME280;59762;49.998;14.858;2023-10-09T05:36:49;97453.97;;;10.06;100.00
71889;BME280;59762;49.998;14.858;2023-10-09T05:39:15;97456.16;;;10.11;100.00
71889;BME280;59762;49.998;14.858;2023-10-09T05:41:47;97456.38;;;10.17;100.00
71889;BME280;59762;49.998;14.858;2023-10-09T05:44:18;97454.25;;;10.21;100.00
71889;BME280;59762;49.998;14.858;2023-10-09T05:47:19;97462.06;;;10.14;100.00
71889;BME280;59762;49.998;14.858;2023-10-09T05:49:57;97464.16;;;10.28;100.00
71889;BME280;59762;49.998;14.858;2023-10-09T05:52:43;97460.56;;;10.20;100.00
71889;BME280;59762;49.998;14.858;2023-10-09T05:55:21;97459.81;;;10.27;100.00
71889;BME280;59762;49.998;14.858;2023-10-09T05:57:50;97466.59;;;10.22;100.00
71889;BME280;59762;49.998;14.858;2023-10-09T06:00:35;97477.72;;;10.35;100.00
71889;BME280;59762;49.998;14.858;2023-10-09T06:03:19;97475.88;;;10.35;100.00
71889;BME280;59762;49.998;14.858;2023-10-09T06:05:45;97454.28;;;10.46;100.00
71889;BME280;59762;49.998;14.858;2023-10-09T06:08:31;97458.91;;;10.44;100.00
71889;BME280;59762;49.998;14.858;2023-10-09T06:11:13;97459.69;;;10.37;100.00
71889;BME280;59762;49.998;14.858;2023-10-09T06:14:01;97463.50;;;10.52;100.00
71889;BME280;59762;49.998;14.858;2023-10-09T06:16:42;97464.44;;;10.43;100.00
71889;BME280;59762;49.998;14.858;2023-10-09T06:19:09;97454.34;;;10.54;100.00
71889;BME280;59762;49.998;14.858;2023-10-09T06:21:38;97461.69;;;10.60;100.00
71889;BME280;59762;49.998;14.858;2023-10-09T06:24:23;97425.28;;;10.51;100.00
71889;BME280;59762;49.998;14.858;2023-10-09T06:26:52;97417.41;;;10.50;100.00
71889;BME280;59762;49.998;14.858;2023-10-09T06:29:24;97411.78;;;10.53;100.00
71889;BME280;59762;49.998;14.858;2023-10-09T06:32:06;97407.75;;;10.49;100.00
71889;BME280;59762;49.998;14.858;2023-10-09T06:37:17;97373.63;;;10.68;100.00
71889;BME280;59762;49.998;14.858;2023-10-09T06:42:25;97379.19;;;10.75;100.00
71889;BME280;59762;49.998;14.858;2023-10-09T06:45:06;97368.00;;;10.71;100.00
71889;BME280;59762;49.998;14.858;2023-10-09T06:47:44;97361.94;;;10.69;100.00
71889;BME280;59762;49.998;14.858;2023-10-09T06:50:30;97365.31;;;10.71;100.00
71889;BME280;59762;49.998;14.858;2023-10-09T06:53:14;97375.84;;;10.73;100.00
71889;BME280;59762;49.998;14.858;2023-10-09T06:55:42;97380.84;;;10.76;100.00
71889;BME280;59762;49.998;14.858;2023-10-09T06:58:18;97389.84;;;10.75;100.00
71889;BME280;59762;49.998;14.858;2023-10-09T07:00:55;97388.44;;;10.88;100.00
71889;BME280;59762;49.998;14.858;2023-10-09T07:03:27;97383.28;;;10.95;100.00
71889;BME280;59762;49.998;14.858;2023-10-09T07:06:10;97394.66;;;11.05;100.00
71889;BME280;59762;49.998;14.858;2023-10-09T07:08:56;97393.31;;;11.01;100.00
71889;BME280;59762;49.998;14.858;2023-10-09T07:11:37;97405.81;;;11.00;100.00
71889;BME280;59762;49.998;14.858;2023-10-09T07:14:23;97416.84;;;10.97;100.00
71889;BME280;59762;49.998;14.858;2023-10-09T07:17:06;97411.84;;;11.02;100.00
71889;BME280;59762;49.998;14.858;2023-10-09T07:19:42;97417.69;;;11.06;100.00
71889;BME280;59762;49.998;14.858;2023-10-09T07:22:09;97419.56;;;11.05;100.00
71889;BME280;59762;49.998;14.858;2023-10-09T07:24:51;97424.72;;;11.07;100.00
71889;BME280;59762;49.998;14.858;2023-10-09T07:27:30;97430.75;;;11.09;100.00
71889;BME280;59762;49.998;14.858;2023-10-09T07:30:20;97420.22;;;11.07;100.00
71889;BME280;59762;49.998;14.858;2023-10-09T07:33:02;97412.25;;;11.15;100.00
71889;BME280;59762;49.998;14.858;2023-10-09T07:35:32;97416.44;;;11.26;100.00
71889;BME280;59762;49.998;14.858;2023-10-09T07:38:20;97400.75;;;11.31;100.00
71889;BME280;59762;49.998;14.858;2023-10-09T07:40:47;97390.13;;;11.47;100.00
71889;BME280;59762;49.998;14.858;2023-10-09T07:43:29;97389.91;;;11.48;100.00
71889;BME280;59762;49.998;14.858;2023-10-09T07:46:06;97389.13;;;11.56;100.00
71889;BME280;59762;49.998;14.858;2023-10-09T07:48:50;97388.00;;;11.66;100.00
71889;BME280;59762;49.998;14.858;2023-10-09T07:51:20;97395.69;;;11.77;100.00
71889;BME280;59762;49.998;14.858;2023-10-09T07:53:52;97396.72;;;11.84;100.00
71889;BME280;59762;49.998;14.858;2023-10-09T07:56:39;97401.03;;;11.85;100.00
71889;BME280;59762;49.998;14.858;2023-10-09T07:59:11;97397.88;;;11.82;100.00
71889;BME280;59762;49.998;14.858;2023-10-09T08:01:39;97405.06;;;11.89;100.00
71889;BME280;59762;49.998;14.858;2023-10-09T08:04:21;97404.38;;;11.95;100.00
71889;BME280;59762;49.998;14.858;2023-10-09T08:07:07;97404.06;;;11.98;100.00
71889;BME280;59762;49.998;14.858;2023-10-09T08:09:34;97414.44;;;12.01;100.00
71889;BME280;59762;49.998;14.858;2023-10-09T08:12:15;97400.53;;;12.06;100.00
71889;BME280;59762;49.998;14.858;2023-10-09T08:15:03;97415.25;;;12.18;100.00
71889;BME280;59762;49.998;14.858;2023-10-09T08:17:55;97405.56;;;12.17;100.00
71889;BME280;59762;49.998;14.858;2023-10-09T08:20:27;97410.06;;;12.16;100.00
71889;BME280;59762;49.998;14.858;2023-10-09T08:23:01;97423.13;;;12.19;100.00
71889;BME280;59762;49.998;14.858;2023-10-09T08:25:30;97423.13;;;12.19;100.00
71889;BME280;59762;49.998;14.858;2023-10-09T08:28:02;97416.59;;;12.22;100.00
71889;BME280;59762;49.998;14.858;2023-10-09T08:30:57;97424.63;;;12.30;100.00
71889;BME280;59762;49.998;14.858;2023-10-09T08:33:30;97419.28;;;12.30;100.00
71889;BME280;59762;49.998;14.858;2023-10-09T08:36:06;97417.94;;;12.34;100.00
71889;BME280;59762;49.998;14.858;2023-10-09T08:38:33;97407.72;;;12.45;100.00
71889;BME280;59762;49.998;14.858;2023-10-09T08:41:06;97403.69;;;12.57;100.00
71889;BME280;59762;49.998;14.858;2023-10-09T08:43:54;97405.16;;;12.68;100.00
71889;BME280;59762;49.998;14.858;2023-10-09T08:46:23;97402.81;;;12.65;100.00
71889;BME280;59762;49.998;14.858;2023-10-09T08:48:49;97405.31;;;12.66;100.00
71889;BME280;59762;49.998;14.858;2023-10-09T08:51:17;97402.97;;;12.71;100.00
71889;BME280;59762;49.998;14.858;2023-10-09T08:53:44;97407.63;;;12.77;100.00
71889;BME280;59762;49.998;14.858;2023-10-09T08:56:12;97410.31;;;12.77;100.00
71889;BME280;59762;49.998;14.858;2023-10-09T08:58:41;97409.66;;;12.75;100.00
71889;BME280;59762;49.998;14.858;2023-10-09T09:01:07;97403.78;;;12.72;100.00
71889;BME280;59762;49.998;14.858;2023-10-09T09:03:40;97402.28;;;12.69;100.00
71889;BME280;59762;49.998;14.858;2023-10-09T09:06:06;97403.44;;;12.75;100.00
71889;BME280;59762;49.998;14.858;2023-10-09T09:08:33;97411.34;;;12.68;100.00
71889;BME280;59762;49.998;14.858;2023-10-09T09:11:03;97408.00;;;12.66;100.00
71889;BME280;59762;49.998;14.858;2023-10-09T09:14:03;97408.03;;;12.58;100.00
71889;BME280;59762;49.998;14.858;2023-10-09T09:16:40;97409.50;;;12.69;100.00
71889;BME280;59762;49.998;14.858;2023-10-09T09:19:10;97409.00;;;12.65;100.00
71889;BME280;59762;49.998;14.858;2023-10-09T09:21:39;97412.84;;;12.71;100.00
71889;BME280;59762;49.998;14.858;2023-10-09T09:24:13;97420.00;;;12.78;100.00
71889;BME280;59762;49.998;14.858;2023-10-09T09:27:03;97417.13;;;12.88;100.00
71889;BME280;59762;49.998;14.858;2023-10-09T09:32:11;97428.69;;;12.96;100.00
71889;BME280;59762;49.998;14.858;2023-10-09T09:34:45;97422.16;;;12.91;100.00
71889;BME280;59762;49.998;14.858;2023-10-09T09:37:22;97415.31;;;12.88;100.00
71889;BME280;59762;49.998;14.858;2023-10-09T09:40:03;97415.13;;;12.98;100.00
71889;BME280;59762;49.998;14.858;2023-10-09T09:42:57;97411.22;;;13.08;100.00
71889;BME280;59762;49.998;14.858;2023-10-09T09:45:39;97403.50;;;13.13;100.00
71889;BME280;59762;49.998;14.858;2023-10-09T09:48:11;97417.09;;;13.12;100.00
71889;BME280;59762;49.998;14.858;2023-10-09T09:50:42;97416.16;;;13.35;100.00
71889;BME280;59762;49.998;14.858;2023-10-09T09:53:13;97430.69;;;13.41;100.00
71889;BME280;59762;49.998;14.858;2023-10-09T09:58:18;97436.56;;;13.44;100.00
71889;BME280;59762;49.998;14.858;2023-10-09T10:00:51;97425.53;;;13.62;100.00
71889;BME280;59762;49.998;14.858;2023-10-09T10:03:26;97426.81;;;13.74;100.00
71889;BME280;59762;49.998;14.858;2023-10-09T10:05:56;97419.41;;;13.76;100.00
71889;BME280;59762;49.998;14.858;2023-10-09T10:08:23;97413.91;;;13.69;100.00
71889;BME280;59762;49.998;14.858;2023-10-09T10:10:57;97411.91;;;13.71;100.00
71889;BME280;59762;49.998;14.858;2023-10-09T10:16:10;97416.63;;;13.92;100.00
71889;BME280;59762;49.998;14.858;2023-10-09T10:18:59;97406.84;;;13.99;100.00
71889;BME280;59762;49.998;14.858;2023-10-09T10:21:37;97410.28;;;14.07;100.00
71889;BME280;59762;49.998;14.858;2023-10-09T10:29:35;97416.28;;;13.95;100.00
71889;BME280;59762;49.998;14.858;2023-10-09T10:32:04;97419.25;;;14.00;100.00
71889;BME280;59762;49.998;14.858;2023-10-09T10:37:12;97427.47;;;13.98;100.00
71889;BME280;59762;49.998;14.858;2023-10-09T10:39:51;97421.94;;;14.00;100.00
71889;BME280;59762;49.998;14.858;2023-10-09T10:42:17;97410.28;;;13.85;100.00
71889;BME280;59762;49.998;14.858;2023-10-09T10:45:04;97415.22;;;13.73;100.00
71889;BME280;59762;49.998;14.858;2023-10-09T10:47:53;97416.56;;;13.77;100.00
71889;BME280;59762;49.998;14.858;2023-10-09T10:50:23;97401.25;;;13.86;100.00
71889;BME280;59762;49.998;14.858;2023-10-09T10:53:13;97397.72;;;13.85;100.00
71889;BME280;59762;49.998;14.858;2023-10-09T10:55:58;97386.34;;;13.83;100.00
71889;BME280;59762;49.998;14.858;2023-10-09T10:58:51;97385.50;;;13.83;100.00
71889;BME280;59762;49.998;14.858;2023-10-09T11:01:33;97397.22;;;14.04;100.00
71889;BME280;59762;49.998;14.858;2023-10-09T11:04:23;97388.28;;;14.12;100.00
71889;BME280;59762;49.998;14.858;2023-10-09T11:06:55;97392.44;;;14.22;100.00
71889;BME280;59762;49.998;14.858;2023-10-09T11:15:31;97419.31;;;13.92;100.00
71889;BME280;59762;49.998;14.858;2023-10-09T11:18:11;97415.13;;;13.89;100.00
71889;BME280;59762;49.998;14.858;2023-10-09T11:20:50;97402.47;;;13.98;100.00
71889;BME280;59762;49.998;14.858;2023-10-09T11:23:42;97404.00;;;14.00;100.00
71889;BME280;59762;49.998;14.858;2023-10-09T11:26:40;97407.03;;;13.97;100.00
71889;BME280;59762;49.998;14.858;2023-10-09T11:29:07;97392.41;;;14.00;100.00
71889;BME280;59762;49.998;14.858;2023-10-09T11:32:02;97400.66;;;14.21;100.00
71889;BME280;59762;49.998;14.858;2023-10-09T11:34:31;97394.25;;;14.22;100.00
71889;BME280;59762;49.998;14.858;2023-10-09T11:36:58;97391.44;;;14.38;100.00
71889;BME280;59762;49.998;14.858;2023-10-09T11:39:29;97390.06;;;14.56;100.00
71889;BME280;59762;49.998;14.858;2023-10-09T11:42:09;97378.97;;;14.74;100.00
71889;BME280;59762;49.998;14.858;2023-10-09T11:44:42;97387.50;;;14.77;100.00
71889;BME280;59762;49.998;14.858;2023-10-09T11:47:11;97377.94;;;14.75;100.00
71889;BME280;59762;49.998;14.858;2023-10-09T11:49:59;97372.66;;;14.81;100.00
71889;BME280;59762;49.998;14.858;2023-10-09T11:52:28;97375.56;;;14.65;100.00
71889;BME280;59762;49.998;14.858;2023-10-09T11:54:59;97370.16;;;14.80;100.00
71889;BME280;59762;49.998;14.858;2023-10-09T11:57:25;97357.91;;;14.77;100.00
71889;BME280;59762;49.998;14.858;2023-10-09T12:00:02;97365.97;;;14.77;100.00
71889;BME280;59762;49.998;14.858;2023-10-09T12:02:47;97365.25;;;14.69;100.00
71889;BME280;59762;49.998;14.858;2023-10-09T12:05:14;97358.69;;;14.71;100.00
71889;BME280;59762;49.998;14.858;2023-10-09T12:07:49;97359.88;;;14.69;100.00
71889;BME280;59762;49.998;14.858;2023-10-09T12:10:21;97361.25;;;14.50;100.00
71889;BME280;59762;49.998;14.858;2023-10-09T12:12:52;97347.63;;;14.52;100.00
71889;BME280;59762;49.998;14.858;2023-10-09T12:15:18;97324.00;;;14.47;100.00
71889;BME280;59762;49.998;14.858;2023-10-09T12:17:45;97344.78;;;14.53;100.00
71889;BME280;59762;49.998;14.858;2023-10-09T12:20:18;97351.81;;;14.54;100.00
71889;BME280;59762;49.998;14.858;2023-10-09T12:22:59;97344.50;;;14.48;100.00
71889;BME280;59762;49.998;14.858;2023-10-09T12:25:25;97336.53;;;14.55;100.00
71889;BME280;59762;49.998;14.858;2023-10-09T12:27:51;97317.34;;;14.58;100.00
71889;BME280;59762;49.998;14.858;2023-10-09T12:30:21;97321.63;;;14.52;100.00
71889;BME280;59762;49.998;14.858;2023-10-09T12:32:53;97321.78;;;14.51;100.00
71889;BME280;59762;49.998;14.858;2023-10-09T12:35:19;97316.34;;;14.59;100.00
71889;BME280;59762;49.998;14.858;2023-10-09T12:37:45;97311.22;;;14.64;100.00
71889;BME280;59762;49.998;14.858;2023-10-09T12:40:11;97319.66;;;14.75;100.00
71889;BME280;59762;49.998;14.858;2023-10-09T12:42:37;97319.00;;;14.73;100.00
71889;BME280;59762;49.998;14.858;2023-10-09T12:45:03;97320.88;;;14.73;100.00
71889;BME280;59762;49.998;14.858;2023-10-09T12:47:35;97324.66;;;14.78;100.00
71889;BME280;59762;49.998;14.858;2023-10-09T12:50:05;97321.22;;;14.70;100.00
71889;BME280;59762;49.998;14.858;2023-10-09T12:52:35;97314.66;;;14.72;100.00
71889;BME280;59762;49.998;14.858;2023-10-09T12:55:03;97322.06;;;14.70;100.00
71889;BME280;59762;49.998;14.858;2023-10-09T12:57:33;97319.47;;;14.62;100.00
71889;BME280;59762;49.998;14.858;2023-10-09T12:59:59;97319.38;;;14.56;100.00
71889;BME280;59762;49.998;14.858;2023-10-09T13:02:25;97315.31;;;14.60;100.00
71889;BME280;59762;49.998;14.858;2023-10-09T13:04:59;97313.06;;;14.49;100.00
71889;BME280;59762;49.998;14.858;2023-10-09T13:07:25;97308.19;;;14.52;100.00
71889;BME280;59762;49.998;14.858;2023-10-09T13:09:51;97310.19;;;14.50;100.00
71889;BME280;59762;49.998;14.858;2023-10-09T13:12:37;97300.84;;;14.46;100.00
71889;BME280;59762;49.998;14.858;2023-10-09T13:15:12;97307.69;;;14.49;100.00
71889;BME280;59762;49.998;14.858;2023-10-09T13:17:39;97295.91;;;14.50;100.00
71889;BME280;59762;49.998;14.858;2023-10-09T13:20:05;97298.81;;;14.48;100.00
71889;BME280;59762;49.998;14.858;2023-10-09T13:22:44;97294.34;;;14.41;100.00
71889;BME280;59762;49.998;14.858;2023-10-09T13:25:13;97290.94;;;14.32;100.00
71889;BME280;59762;49.998;14.858;2023-10-09T13:27:43;97280.44;;;14.23;100.00
71889;BME280;59762;49.998;14.858;2023-10-09T13:30:19;97289.84;;;14.19;100.00
71889;BME280;59762;49.998;14.858;2023-10-09T13:32:49;97288.44;;;13.94;100.00
71889;BME280;59762;49.998;14.858;2023-10-09T13:35:19;97283.97;;;13.86;100.00
71889;BME280;59762;49.998;14.858;2023-10-09T13:37:45;97288.63;;;13.92;100.00
71889;BME280;59762;49.998;14.858;2023-10-09T13:40:22;97275.09;;;13.86;100.00
71889;BME280;59762;49.998;14.858;2023-10-09T13:42:54;97282.03;;;13.80;100.00
71889;BME280;59762;49.998;14.858;2023-10-09T13:45:27;97282.03;;;13.80;100.00
71889;BME280;59762;49.998;14.858;2023-10-09T13:47:55;97279.06;;;13.75;100.00
71889;BME280;59762;49.998;14.858;2023-10-09T13:50:23;97283.75;;;13.73;100.00
71889;BME280;59762;49.998;14.858;2023-10-09T13:52:50;97288.31;;;13.73;100.00
71889;BME280;59762;49.998;14.858;2023-10-09T13:55:19;97289.00;;;13.67;100.00
71889;BME280;59762;49.998;14.858;2023-10-09T13:57:45;97291.34;;;13.70;100.00
71889;BME280;59762;49.998;14.858;2023-10-09T14:00:14;97291.81;;;13.73;100.00
71889;BME280;59762;49.998;14.858;2023-10-09T14:02:45;97281.75;;;13.75;100.00